Menomonee — 5BKY4 — position and weather

sailwx.info

Track history (hours):
 
Tides and Currents Weather Stations Pressure Air Temp Water Temp Dewpoint Dewpoint Depression Visibility Wind Speed Wind Dir Waves Ship Positions

Menomonee

Last reported at 2018-Feb-19 12:31 UTC. Time now 2018-Feb-23 04:43 UTC.
Position N 35°58' W 005°37'.

Length 190 m; draft 9.4 m.

Type: Cargo ship. MMSI: 212968000.

Date/timePositionNaut miles runAvg speedWind from/ knotsBaromVisibWave heightAir tempDewpointWater temp
2018-Feb-19 12:31N 35°58' W 005°37'010.3
2018-Feb-19 12:30N 35°58' W 005°37'510.1
2018-Feb-19 12:00N 35°59' W 005°31'5 9.4
2018-Feb-19 11:30N 36°01' W 005°25'610.9
2018-Feb-19 10:59N 36°06' W 005°23'2 3.4
2018-Feb-19 10:30N 36°08' W 005°22'0 0.0
2018-Feb-19 09:15N 36°08' W 005°22'0 0.0
2018-Feb-19 08:46N 36°08' W 005°22'  
2018-Feb-15 16:40N 36°39' E 013°42'210.2
2018-Feb-15 16:29N 36°38' E 013°44'510.0
2018-Feb-15 15:59N 36°37' E 013°51'5 9.8
2018-Feb-15 15:30N 36°35' E 013°56'5 9.8
2018-Feb-15 15:00N 36°34' E 014°02'510.0
2018-Feb-15 14:30N 36°32' E 014°08'510.0
2018-Feb-15 14:00N 36°31' E 014°14'510.0
2018-Feb-15 13:30N 36°29' E 014°20'5 9.5
2018-Feb-15 13:00N 36°28' E 014°25'5 9.4
2018-Feb-15 12:29N 36°26' E 014°31'5 9.5
2018-Feb-15 12:00N 36°25' E 014°37'5 9.1
2018-Feb-15 11:29N 36°24' E 014°42'4 9.0
2018-Feb-15 11:00N 36°22' E 014°47'6 9.0
2018-Feb-15 10:21N 36°21' E 014°54'  
Track history (hours):
 
Tides and Currents Weather Stations Pressure Air Temp Water Temp Dewpoint Dewpoint Depression Visibility Wind Speed Wind Dir Waves Ship Positions

Menomonee

Last reported at 2018-Feb-19 12:31 UTC. Time now 2018-Feb-23 04:43 UTC.
Position N 35°58' W 005°37'.

Length 190 m; draft 9.4 m.

Type: Cargo ship. MMSI: 212968000.

Date/timePositionNaut miles runAvg speedWind from/ knotsBaromVisibWave heightAir tempDewpointWater temp
2018-Feb-19 12:31N 35°58' W 005°37'010.3
2018-Feb-19 12:30N 35°58' W 005°37'510.1
2018-Feb-19 12:00N 35°59' W 005°31'5 9.4
2018-Feb-19 11:30N 36°01' W 005°25'610.9
2018-Feb-19 10:59N 36°06' W 005°23'2 3.4
2018-Feb-19 10:30N 36°08' W 005°22'0 0.0
2018-Feb-19 09:15N 36°08' W 005°22'0 0.0
2018-Feb-19 08:46N 36°08' W 005°22'  
2018-Feb-15 16:40N 36°39' E 013°42'210.2
2018-Feb-15 16:29N 36°38' E 013°44'510.0
2018-Feb-15 15:59N 36°37' E 013°51'5 9.8
2018-Feb-15 15:30N 36°35' E 013°56'5 9.8
2018-Feb-15 15:00N 36°34' E 014°02'510.0
2018-Feb-15 14:30N 36°32' E 014°08'510.0
2018-Feb-15 14:00N 36°31' E 014°14'510.0
2018-Feb-15 13:30N 36°29' E 014°20'5 9.5
2018-Feb-15 13:00N 36°28' E 014°25'5 9.4
2018-Feb-15 12:29N 36°26' E 014°31'5 9.5
2018-Feb-15 12:00N 36°25' E 014°37'5 9.1
2018-Feb-15 11:29N 36°24' E 014°42'4 9.0
2018-Feb-15 11:00N 36°22' E 014°47'6 9.0
2018-Feb-15 10:21N 36°21' E 014°54'  

Dump ship's entire track history